sensor_id;sensor_type;location;lat;lon;timestamp;P1;durP1;ratioP1;P2;durP2;ratioP2
11877;SDS011;5998;42.676;23.268;2023-02-03T00:02:04;3.27;;;2.37;;
11877;SDS011;5998;42.676;23.268;2023-02-03T00:04:31;3.20;;;2.20;;
11877;SDS011;5998;42.676;23.268;2023-02-03T00:06:57;2.93;;;2.27;;
11877;SDS011;5998;42.676;23.268;2023-02-03T00:09:25;3.30;;;2.67;;
11877;SDS011;5998;42.676;23.268;2023-02-03T00:11:52;2.87;;;2.50;;
11877;SDS011;5998;42.676;23.268;2023-02-03T00:14:19;2.73;;;2.40;;
11877;SDS011;5998;42.676;23.268;2023-02-03T00:16:46;3.90;;;2.47;;
11877;SDS011;5998;42.676;23.268;2023-02-03T00:19:13;2.63;;;2.40;;
11877;SDS011;5998;42.676;23.268;2023-02-03T00:21:40;3.20;;;2.17;;
11877;SDS011;5998;42.676;23.268;2023-02-03T00:24:06;3.53;;;2.93;;
11877;SDS011;5998;42.676;23.268;2023-02-03T00:26:39;3.13;;;2.83;;
11877;SDS011;5998;42.676;23.268;2023-02-03T00:29:07;3.93;;;2.57;;
11877;SDS011;5998;42.676;23.268;2023-02-03T00:31:34;4.03;;;3.10;;
11877;SDS011;5998;42.676;23.268;2023-02-03T00:34:01;3.20;;;2.90;;
11877;SDS011;5998;42.676;23.268;2023-02-03T00:36:28;3.83;;;3.20;;
11877;SDS011;5998;42.676;23.268;2023-02-03T00:38:54;3.73;;;3.20;;
11877;SDS011;5998;42.676;23.268;2023-02-03T00:41:21;3.47;;;3.00;;
11877;SDS011;5998;42.676;23.268;2023-02-03T00:43:49;4.43;;;2.60;;
11877;SDS011;5998;42.676;23.268;2023-02-03T00:46:16;2.77;;;2.40;;
11877;SDS011;5998;42.676;23.268;2023-02-03T00:48:43;3.10;;;2.80;;
11877;SDS011;5998;42.676;23.268;2023-02-03T00:51:09;2.97;;;2.70;;
11877;SDS011;5998;42.676;23.268;2023-02-03T00:53:36;2.73;;;2.40;;
11877;SDS011;5998;42.676;23.268;2023-02-03T00:56:03;3.63;;;2.40;;
11877;SDS011;5998;42.676;23.268;2023-02-03T00:58:36;4.10;;;2.80;;
11877;SDS011;5998;42.676;23.268;2023-02-03T01:01:04;2.77;;;2.53;;
11877;SDS011;5998;42.676;23.268;2023-02-03T01:03:31;3.47;;;2.87;;
11877;SDS011;5998;42.676;23.268;2023-02-03T01:06:06;2.93;;;2.53;;
11877;SDS011;5998;42.676;23.268;2023-02-03T01:08:34;2.20;;;2.00;;
11877;SDS011;5998;42.676;23.268;2023-02-03T01:11:04;2.33;;;2.00;;
11877;SDS011;5998;42.676;23.268;2023-02-03T01:13:31;2.70;;;2.10;;
11877;SDS011;5998;42.676;23.268;2023-02-03T01:15:58;2.07;;;1.87;;
11877;SDS011;5998;42.676;23.268;2023-02-03T01:18:26;3.23;;;2.00;;
11877;SDS011;5998;42.676;23.268;2023-02-03T01:20:53;1.90;;;1.70;;
11877;SDS011;5998;42.676;23.268;2023-02-03T01:23:19;1.93;;;1.77;;
11877;SDS011;5998;42.676;23.268;2023-02-03T01:25:46;2.77;;;1.90;;
11877;SDS011;5998;42.676;23.268;2023-02-03T01:28:13;1.80;;;1.70;;
11877;SDS011;5998;42.676;23.268;2023-02-03T01:30:39;1.97;;;1.57;;
11877;SDS011;5998;42.676;23.268;2023-02-03T01:33:06;1.70;;;1.60;;
11877;SDS011;5998;42.676;23.268;2023-02-03T01:35:34;1.60;;;1.50;;
11877;SDS011;5998;42.676;23.268;2023-02-03T01:38:01;1.67;;;1.57;;
11877;SDS011;5998;42.676;23.268;2023-02-03T01:40:27;2.80;;;1.50;;
11877;SDS011;5998;42.676;23.268;2023-02-03T01:42:54;2.03;;;1.30;;
11877;SDS011;5998;42.676;23.268;2023-02-03T01:45:21;2.37;;;1.40;;
11877;SDS011;5998;42.676;23.268;2023-02-03T01:47:48;2.10;;;1.37;;
11877;SDS011;5998;42.676;23.268;2023-02-03T01:50:18;1.80;;;1.33;;
11877;SDS011;5998;42.676;23.268;2023-02-03T01:52:50;2.83;;;1.30;;
11877;SDS011;5998;42.676;23.268;2023-02-03T01:55:20;1.90;;;1.50;;
11877;SDS011;5998;42.676;23.268;2023-02-03T01:57:54;1.47;;;1.30;;
11877;SDS011;5998;42.676;23.268;2023-02-03T02:00:24;1.83;;;1.33;;
11877;SDS011;5998;42.676;23.268;2023-02-03T02:02:51;2.47;;;1.90;;
11877;SDS011;5998;42.676;23.268;2023-02-03T02:05:20;1.90;;;1.80;;
11877;SDS011;5998;42.676;23.268;2023-02-03T02:07:52;2.43;;;1.60;;
11877;SDS011;5998;42.676;23.268;2023-02-03T02:10:20;2.13;;;1.60;;
11877;SDS011;5998;42.676;23.268;2023-02-03T02:12:46;1.80;;;1.60;;
11877;SDS011;5998;42.676;23.268;2023-02-03T02:15:13;1.70;;;1.60;;
11877;SDS011;5998;42.676;23.268;2023-02-03T02:20:57;3.20;;;2.00;;
11877;SDS011;5998;42.676;23.268;2023-02-03T02:23:57;4.27;;;1.60;;
11877;SDS011;5998;42.676;23.268;2023-02-03T02:26:48;1.73;;;1.63;;
11877;SDS011;5998;42.676;23.268;2023-02-03T02:32:26;1.90;;;1.80;;
11877;SDS011;5998;42.676;23.268;2023-02-03T02:35:02;1.77;;;1.67;;
11877;SDS011;5998;42.676;23.268;2023-02-03T02:37:36;2.80;;;1.80;;
11877;SDS011;5998;42.676;23.268;2023-02-03T02:40:13;2.17;;;1.80;;
11877;SDS011;5998;42.676;23.268;2023-02-03T02:42:50;2.33;;;2.13;;
11877;SDS011;5998;42.676;23.268;2023-02-03T02:45:28;3.27;;;2.00;;
11877;SDS011;5998;42.676;23.268;2023-02-03T02:48:00;2.03;;;1.87;;
11877;SDS011;5998;42.676;23.268;2023-02-03T02:50:32;2.13;;;1.80;;
11877;SDS011;5998;42.676;23.268;2023-02-03T02:53:03;2.03;;;1.70;;
11877;SDS011;5998;42.676;23.268;2023-02-03T02:55:31;2.60;;;1.70;;
11877;SDS011;5998;42.676;23.268;2023-02-03T02:58:03;1.93;;;1.80;;
11877;SDS011;5998;42.676;23.268;2023-02-03T03:00:33;1.90;;;1.80;;
11877;SDS011;5998;42.676;23.268;2023-02-03T03:03:09;1.70;;;1.60;;
11877;SDS011;5998;42.676;23.268;2023-02-03T03:05:38;2.03;;;1.83;;
11877;SDS011;5998;42.676;23.268;2023-02-03T03:08:09;1.90;;;1.80;;
11877;SDS011;5998;42.676;23.268;2023-02-03T03:10:39;2.43;;;2.23;;
11877;SDS011;5998;42.676;23.268;2023-02-03T03:13:08;2.10;;;2.00;;
11877;SDS011;5998;42.676;23.268;2023-02-03T03:15:38;1.07;;;1.07;;
11877;SDS011;5998;42.676;23.268;2023-02-03T03:18:08;2.23;;;1.80;;
11877;SDS011;5998;42.676;23.268;2023-02-03T03:20:38;2.17;;;1.97;;
11877;SDS011;5998;42.676;23.268;2023-02-03T03:23:09;1.57;;;1.47;;
11877;SDS011;5998;42.676;23.268;2023-02-03T03:25:45;2.00;;;1.80;;
11877;SDS011;5998;42.676;23.268;2023-02-03T03:28:21;1.87;;;1.73;;
11877;SDS011;5998;42.676;23.268;2023-02-03T03:30:53;1.73;;;1.63;;
11877;SDS011;5998;42.676;23.268;2023-02-03T03:33:21;2.00;;;1.67;;
11877;SDS011;5998;42.676;23.268;2023-02-03T03:35:50;2.43;;;1.77;;
11877;SDS011;5998;42.676;23.268;2023-02-03T03:38:22;1.77;;;1.67;;
11877;SDS011;5998;42.676;23.268;2023-02-03T03:40:58;2.60;;;1.90;;
11877;SDS011;5998;42.676;23.268;2023-02-03T03:43:29;2.50;;;1.80;;
11877;SDS011;5998;42.676;23.268;2023-02-03T03:45:59;2.07;;;1.73;;
11877;SDS011;5998;42.676;23.268;2023-02-03T03:48:33;2.00;;;1.70;;
11877;SDS011;5998;42.676;23.268;2023-02-03T03:51:05;1.70;;;1.60;;
11877;SDS011;5998;42.676;23.268;2023-02-03T03:53:36;2.50;;;2.00;;
11877;SDS011;5998;42.676;23.268;2023-02-03T03:56:06;1.67;;;1.57;;
11877;SDS011;5998;42.676;23.268;2023-02-03T03:58:38;2.17;;;1.73;;
11877;SDS011;5998;42.676;23.268;2023-02-03T04:01:10;2.87;;;1.70;;
11877;SDS011;5998;42.676;23.268;2023-02-03T04:03:42;2.13;;;1.83;;
11877;SDS011;5998;42.676;23.268;2023-02-03T04:06:11;1.70;;;1.60;;
11877;SDS011;5998;42.676;23.268;2023-02-03T04:08:38;1.43;;;1.33;;
11877;SDS011;5998;42.676;23.268;2023-02-03T04:11:05;1.80;;;1.43;;
11877;SDS011;5998;42.676;23.268;2023-02-03T04:13:32;1.70;;;1.60;;
11877;SDS011;5998;42.676;23.268;2023-02-03T04:15:59;1.80;;;1.70;;
11877;SDS011;5998;42.676;23.268;2023-02-03T04:18:26;2.10;;;1.70;;
11877;SDS011;5998;42.676;23.268;2023-02-03T04:20:54;1.90;;;1.80;;
11877;SDS011;5998;42.676;23.268;2023-02-03T04:23:20;2.13;;;1.67;;
11877;SDS011;5998;42.676;23.268;2023-02-03T04:25:47;1.70;;;1.60;;
11877;SDS011;5998;42.676;23.268;2023-02-03T04:28:13;2.20;;;1.87;;
11877;SDS011;5998;42.676;23.268;2023-02-03T04:30:40;2.60;;;2.17;;
11877;SDS011;5998;42.676;23.268;2023-02-03T04:33:07;2.13;;;2.00;;
11877;SDS011;5998;42.676;23.268;2023-02-03T04:35:34;1.70;;;1.60;;
11877;SDS011;5998;42.676;23.268;2023-02-03T04:38:03;2.20;;;2.00;;
11877;SDS011;5998;42.676;23.268;2023-02-03T04:40:29;3.13;;;2.17;;
11877;SDS011;5998;42.676;23.268;2023-02-03T04:42:56;2.90;;;2.03;;
11877;SDS011;5998;42.676;23.268;2023-02-03T04:45:23;2.93;;;1.90;;
11877;SDS011;5998;42.676;23.268;2023-02-03T04:47:50;1.80;;;1.70;;
11877;SDS011;5998;42.676;23.268;2023-02-03T04:50:18;1.90;;;1.80;;
11877;SDS011;5998;42.676;23.268;2023-02-03T04:52:44;1.77;;;1.67;;
11877;SDS011;5998;42.676;23.268;2023-02-03T04:55:13;2.13;;;1.77;;
11877;SDS011;5998;42.676;23.268;2023-02-03T04:57:39;2.80;;;2.30;;
11877;SDS011;5998;42.676;23.268;2023-02-03T05:00:06;3.27;;;2.07;;
11877;SDS011;5998;42.676;23.268;2023-02-03T05:02:34;2.47;;;2.27;;
11877;SDS011;5998;42.676;23.268;2023-02-03T05:05:00;2.10;;;2.00;;
11877;SDS011;5998;42.676;23.268;2023-02-03T05:07:27;3.23;;;2.20;;
11877;SDS011;5998;42.676;23.268;2023-02-03T05:09:54;2.03;;;1.93;;
11877;SDS011;5998;42.676;23.268;2023-02-03T05:12:22;2.17;;;1.90;;
11877;SDS011;5998;42.676;23.268;2023-02-03T05:14:48;2.30;;;2.10;;
11877;SDS011;5998;42.676;23.268;2023-02-03T05:17:15;2.07;;;1.87;;
11877;SDS011;5998;42.676;23.268;2023-02-03T05:19:42;4.23;;;2.20;;
11877;SDS011;5998;42.676;23.268;2023-02-03T05:22:08;2.83;;;2.20;;
11877;SDS011;5998;42.676;23.268;2023-02-03T05:24:35;3.03;;;2.10;;
11877;SDS011;5998;42.676;23.268;2023-02-03T05:27:02;2.80;;;1.93;;
11877;SDS011;5998;42.676;23.268;2023-02-03T05:29:30;2.17;;;1.97;;
11877;SDS011;5998;42.676;23.268;2023-02-03T05:31:57;2.60;;;2.40;;
11877;SDS011;5998;42.676;23.268;2023-02-03T05:34:23;3.07;;;2.47;;
11877;SDS011;5998;42.676;23.268;2023-02-03T05:36:50;2.40;;;2.20;;
11877;SDS011;5998;42.676;23.268;2023-02-03T05:39:17;4.00;;;2.37;;
11877;SDS011;5998;42.676;23.268;2023-02-03T05:41:44;2.63;;;2.03;;
11877;SDS011;5998;42.676;23.268;2023-02-03T05:44:18;3.40;;;2.07;;
11877;SDS011;5998;42.676;23.268;2023-02-03T05:46:46;2.63;;;2.43;;
11877;SDS011;5998;42.676;23.268;2023-02-03T05:49:14;2.57;;;2.37;;
11877;SDS011;5998;42.676;23.268;2023-02-03T05:51:41;5.03;;;2.70;;
11877;SDS011;5998;42.676;23.268;2023-02-03T05:54:08;2.50;;;2.30;;
11877;SDS011;5998;42.676;23.268;2023-02-03T05:56:35;3.10;;;2.80;;
11877;SDS011;5998;42.676;23.268;2023-02-03T05:59:02;2.10;;;1.90;;
11877;SDS011;5998;42.676;23.268;2023-02-03T06:01:29;3.27;;;2.57;;
11877;SDS011;5998;42.676;23.268;2023-02-03T06:03:57;2.60;;;2.40;;
11877;SDS011;5998;42.676;23.268;2023-02-03T06:06:25;3.20;;;2.20;;
11877;SDS011;5998;42.676;23.268;2023-02-03T06:08:57;2.50;;;2.27;;
11877;SDS011;5998;42.676;23.268;2023-02-03T06:11:23;2.97;;;2.67;;
11877;SDS011;5998;42.676;23.268;2023-02-03T06:13:50;4.33;;;2.93;;
11877;SDS011;5998;42.676;23.268;2023-02-03T06:16:17;5.10;;;3.60;;
11877;SDS011;5998;42.676;23.268;2023-02-03T06:18:44;4.67;;;3.50;;
11877;SDS011;5998;42.676;23.268;2023-02-03T06:21:12;2.57;;;2.37;;
11877;SDS011;5998;42.676;23.268;2023-02-03T06:23:39;2.20;;;2.00;;
11877;SDS011;5998;42.676;23.268;2023-02-03T06:26:05;2.13;;;2.00;;
11877;SDS011;5998;42.676;23.268;2023-02-03T06:28:32;2.30;;;2.10;;
11877;SDS011;5998;42.676;23.268;2023-02-03T06:30:59;2.47;;;2.20;;
11877;SDS011;5998;42.676;23.268;2023-02-03T06:33:25;3.27;;;1.80;;
11877;SDS011;5998;42.676;23.268;2023-02-03T06:35:52;3.33;;;1.80;;
11877;SDS011;5998;42.676;23.268;2023-02-03T06:38:20;1.80;;;1.60;;
11877;SDS011;5998;42.676;23.268;2023-02-03T06:40:47;2.80;;;2.30;;
11877;SDS011;5998;42.676;23.268;2023-02-03T06:43:15;2.60;;;2.07;;
11877;SDS011;5998;42.676;23.268;2023-02-03T06:45:44;3.37;;;2.30;;
11877;SDS011;5998;42.676;23.268;2023-02-03T06:48:11;3.53;;;2.40;;
11877;SDS011;5998;42.676;23.268;2023-02-03T06:50:39;3.97;;;2.57;;
11877;SDS011;5998;42.676;23.268;2023-02-03T06:53:06;1.90;;;1.80;;
11877;SDS011;5998;42.676;23.268;2023-02-03T06:55:34;3.20;;;2.20;;
11877;SDS011;5998;42.676;23.268;2023-02-03T06:58:00;2.43;;;1.80;;
11877;SDS011;5998;42.676;23.268;2023-02-03T07:00:27;2.77;;;1.60;;
11877;SDS011;5998;42.676;23.268;2023-02-03T07:02:54;2.63;;;1.80;;
11877;SDS011;5998;42.676;23.268;2023-02-03T07:05:22;2.00;;;1.47;;
11877;SDS011;5998;42.676;23.268;2023-02-03T07:07:49;1.53;;;1.43;;
11877;SDS011;5998;42.676;23.268;2023-02-03T07:10:16;2.40;;;1.80;;
11877;SDS011;5998;42.676;23.268;2023-02-03T07:12:45;2.23;;;2.00;;
11877;SDS011;5998;42.676;23.268;2023-02-03T07:15:12;2.40;;;2.20;;
11877;SDS011;5998;42.676;23.268;2023-02-03T07:17:38;2.00;;;1.80;;
11877;SDS011;5998;42.676;23.268;2023-02-03T07:20:05;3.20;;;2.30;;
11877;SDS011;5998;42.676;23.268;2023-02-03T07:22:33;2.30;;;2.10;;
11877;SDS011;5998;42.676;23.268;2023-02-03T07:25:00;2.40;;;2.00;;
11877;SDS011;5998;42.676;23.268;2023-02-03T07:27:27;4.37;;;2.67;;
11877;SDS011;5998;42.676;23.268;2023-02-03T07:29:55;2.70;;;2.20;;
11877;SDS011;5998;42.676;23.268;2023-02-03T07:32:22;2.30;;;2.10;;
11877;SDS011;5998;42.676;23.268;2023-02-03T07:34:48;2.53;;;2.17;;
11877;SDS011;5998;42.676;23.268;2023-02-03T07:37:15;2.50;;;2.30;;
11877;SDS011;5998;42.676;23.268;2023-02-03T07:39:42;2.10;;;1.90;;
11877;SDS011;5998;42.676;23.268;2023-02-03T07:42:10;1.87;;;1.70;;
11877;SDS011;5998;42.676;23.268;2023-02-03T07:44:36;2.13;;;1.93;;
11877;SDS011;5998;42.676;23.268;2023-02-03T07:47:04;1.40;;;1.40;;
11877;SDS011;5998;42.676;23.268;2023-02-03T07:49:31;2.40;;;2.10;;
11877;SDS011;5998;42.676;23.268;2023-02-03T07:51:58;8.50;;;2.77;;
11877;SDS011;5998;42.676;23.268;2023-02-03T07:54:24;2.30;;;2.10;;
11877;SDS011;5998;42.676;23.268;2023-02-03T07:56:51;2.47;;;2.27;;
11877;SDS011;5998;42.676;23.268;2023-02-03T07:59:18;5.23;;;2.07;;
11877;SDS011;5998;42.676;23.268;2023-02-03T08:01:45;2.00;;;1.80;;
11877;SDS011;5998;42.676;23.268;2023-02-03T08:04:13;2.00;;;1.87;;
11877;SDS011;5998;42.676;23.268;2023-02-03T08:06:41;4.57;;;1.93;;
11877;SDS011;5998;42.676;23.268;2023-02-03T08:09:08;2.50;;;1.90;;
11877;SDS011;5998;42.676;23.268;2023-02-03T08:11:34;3.87;;;1.90;;
11877;SDS011;5998;42.676;23.268;2023-02-03T08:14:01;2.47;;;2.27;;
11877;SDS011;5998;42.676;23.268;2023-02-03T08:16:28;3.20;;;2.07;;
11877;SDS011;5998;42.676;23.268;2023-02-03T08:18:54;2.23;;;2.03;;
11877;SDS011;5998;42.676;23.268;2023-02-03T08:21:23;4.47;;;1.60;;
11877;SDS011;5998;42.676;23.268;2023-02-03T08:23:50;2.57;;;1.53;;
11877;SDS011;5998;42.676;23.268;2023-02-03T08:26:16;2.70;;;2.00;;
11877;SDS011;5998;42.676;23.268;2023-02-03T08:28:46;2.03;;;1.80;;
11877;SDS011;5998;42.676;23.268;2023-02-03T08:31:13;4.40;;;2.20;;
11877;SDS011;5998;42.676;23.268;2023-02-03T08:33:40;2.17;;;1.70;;
11877;SDS011;5998;42.676;23.268;2023-02-03T08:36:07;2.20;;;1.80;;
11877;SDS011;5998;42.676;23.268;2023-02-03T08:38:36;1.87;;;1.63;;
11877;SDS011;5998;42.676;23.268;2023-02-03T08:41:07;1.97;;;1.70;;
11877;SDS011;5998;42.676;23.268;2023-02-03T08:43:35;2.57;;;1.80;;
11877;SDS011;5998;42.676;23.268;2023-02-03T08:46:02;2.50;;;1.97;;
11877;SDS011;5998;42.676;23.268;2023-02-03T08:48:30;1.50;;;1.40;;
11877;SDS011;5998;42.676;23.268;2023-02-03T08:50:57;2.10;;;1.90;;
11877;SDS011;5998;42.676;23.268;2023-02-03T08:53:24;2.00;;;1.80;;
11877;SDS011;5998;42.676;23.268;2023-02-03T08:55:52;2.43;;;1.77;;
11877;SDS011;5998;42.676;23.268;2023-02-03T08:58:20;1.77;;;1.30;;
11877;SDS011;5998;42.676;23.268;2023-02-03T09:00:47;3.27;;;1.80;;
11877;SDS011;5998;42.676;23.268;2023-02-03T09:03:14;2.70;;;2.10;;
11877;SDS011;5998;42.676;23.268;2023-02-03T09:05:40;3.40;;;1.87;;
11877;SDS011;5998;42.676;23.268;2023-02-03T09:08:07;2.30;;;1.67;;
11877;SDS011;5998;42.676;23.268;2023-02-03T09:10:34;1.83;;;1.43;;
11877;SDS011;5998;42.676;23.268;2023-02-03T09:13:02;1.80;;;1.70;;
11877;SDS011;5998;42.676;23.268;2023-02-03T09:15:29;4.90;;;1.50;;
11877;SDS011;5998;42.676;23.268;2023-02-03T09:17:56;3.20;;;2.07;;
11877;SDS011;5998;42.676;23.268;2023-02-03T09:20:23;2.23;;;1.60;;
11877;SDS011;5998;42.676;23.268;2023-02-03T09:22:50;2.00;;;1.70;;
11877;SDS011;5998;42.676;23.268;2023-02-03T09:25:19;2.63;;;1.90;;
11877;SDS011;5998;42.676;23.268;2023-02-03T09:27:45;1.60;;;1.50;;
11877;SDS011;5998;42.676;23.268;2023-02-03T09:30:14;3.90;;;2.17;;
11877;SDS011;5998;42.676;23.268;2023-02-03T09:32:40;2.83;;;2.03;;
11877;SDS011;5998;42.676;23.268;2023-02-03T09:35:07;2.20;;;2.00;;
11877;SDS011;5998;42.676;23.268;2023-02-03T09:37:34;1.73;;;1.57;;
11877;SDS011;5998;42.676;23.268;2023-02-03T09:40:01;1.40;;;1.37;;
11877;SDS011;5998;42.676;23.268;2023-02-03T09:42:32;2.23;;;2.03;;
11877;SDS011;5998;42.676;23.268;2023-02-03T09:45:20;5.33;;;1.90;;
11877;SDS011;5998;42.676;23.268;2023-02-03T09:47:50;1.57;;;1.47;;
11877;SDS011;5998;42.676;23.268;2023-02-03T09:50:20;3.33;;;2.20;;
11877;SDS011;5998;42.676;23.268;2023-02-03T09:52:49;1.60;;;1.30;;
11877;SDS011;5998;42.676;23.268;2023-02-03T09:55:20;2.03;;;1.53;;
11877;SDS011;5998;42.676;23.268;2023-02-03T09:57:54;1.93;;;1.77;;
11877;SDS011;5998;42.676;23.268;2023-02-03T10:00:31;3.03;;;1.47;;
11877;SDS011;5998;42.676;23.268;2023-02-03T10:03:03;1.43;;;1.30;;
11877;SDS011;5998;42.676;23.268;2023-02-03T10:05:45;3.83;;;1.67;;
11877;SDS011;5998;42.676;23.268;2023-02-03T10:08:23;2.60;;;2.00;;
11877;SDS011;5998;42.676;23.268;2023-02-03T10:11:00;1.70;;;1.60;;
11877;SDS011;5998;42.676;23.268;2023-02-03T10:13:39;2.67;;;1.70;;
11877;SDS011;5998;42.676;23.268;2023-02-03T10:16:20;3.33;;;1.60;;
11877;SDS011;5998;42.676;23.268;2023-02-03T10:18:59;2.27;;;1.90;;
11877;SDS011;5998;42.676;23.268;2023-02-03T10:21:33;1.40;;;1.30;;
11877;SDS011;5998;42.676;23.268;2023-02-03T10:24:04;2.23;;;1.40;;
11877;SDS011;5998;42.676;23.268;2023-02-03T10:26:35;1.73;;;1.63;;
11877;SDS011;5998;42.676;23.268;2023-02-03T10:29:05;3.37;;;2.30;;
11877;SDS011;5998;42.676;23.268;2023-02-03T10:31:44;2.07;;;1.80;;
11877;SDS011;5998;42.676;23.268;2023-02-03T10:34:12;2.73;;;1.90;;
11877;SDS011;5998;42.676;23.268;2023-02-03T10:36:45;2.27;;;1.87;;
11877;SDS011;5998;42.676;23.268;2023-02-03T10:39:22;1.37;;;1.27;;
11877;SDS011;5998;42.676;23.268;2023-02-03T10:41:54;1.17;;;1.10;;
11877;SDS011;5998;42.676;23.268;2023-02-03T10:44:23;2.47;;;1.50;;
11877;SDS011;5998;42.676;23.268;2023-02-03T10:46:56;2.60;;;1.67;;
11877;SDS011;5998;42.676;23.268;2023-02-03T10:49:22;2.47;;;1.80;;
11877;SDS011;5998;42.676;23.268;2023-02-03T10:51:54;1.37;;;1.27;;
11877;SDS011;5998;42.676;23.268;2023-02-03T10:54:29;1.50;;;1.40;;
11877;SDS011;5998;42.676;23.268;2023-02-03T10:57:00;1.50;;;1.40;;
11877;SDS011;5998;42.676;23.268;2023-02-03T10:59:30;3.60;;;1.50;;
11877;SDS011;5998;42.676;23.268;2023-02-03T11:02:00;2.97;;;1.80;;
11877;SDS011;5998;42.676;23.268;2023-02-03T11:04:37;1.80;;;1.70;;
11877;SDS011;5998;42.676;23.268;2023-02-03T11:07:04;1.63;;;1.53;;
11877;SDS011;5998;42.676;23.268;2023-02-03T11:09:34;3.47;;;1.90;;
11877;SDS011;5998;42.676;23.268;2023-02-03T11:12:06;3.10;;;1.70;;
11877;SDS011;5998;42.676;23.268;2023-02-03T11:14:37;1.50;;;1.40;;
11877;SDS011;5998;42.676;23.268;2023-02-03T11:17:06;3.10;;;1.50;;
11877;SDS011;5998;42.676;23.268;2023-02-03T11:19:35;1.63;;;1.53;;
11877;SDS011;5998;42.676;23.268;2023-02-03T11:22:04;2.10;;;1.70;;
11877;SDS011;5998;42.676;23.268;2023-02-03T11:24:32;1.90;;;1.70;;
11877;SDS011;5998;42.676;23.268;2023-02-03T11:27:03;3.17;;;2.17;;
11877;SDS011;5998;42.676;23.268;2023-02-03T11:29:32;2.53;;;2.07;;
11877;SDS011;5998;42.676;23.268;2023-02-03T11:32:02;4.20;;;1.93;;
11877;SDS011;5998;42.676;23.268;2023-02-03T11:34:34;2.33;;;2.13;;
11877;SDS011;5998;42.676;23.268;2023-02-03T11:37:09;2.20;;;1.87;;
11877;SDS011;5998;42.676;23.268;2023-02-03T11:39:53;3.07;;;1.67;;
11877;SDS011;5998;42.676;23.268;2023-02-03T11:42:21;2.20;;;2.00;;
11877;SDS011;5998;42.676;23.268;2023-02-03T11:44:48;2.83;;;2.10;;
11877;SDS011;5998;42.676;23.268;2023-02-03T11:47:15;2.03;;;1.80;;
11877;SDS011;5998;42.676;23.268;2023-02-03T11:50:06;2.50;;;1.90;;
11877;SDS011;5998;42.676;23.268;2023-02-03T11:52:49;1.50;;;1.37;;
11877;SDS011;5998;42.676;23.268;2023-02-03T11:55:27;3.90;;;1.83;;
11877;SDS011;5998;42.676;23.268;2023-02-03T11:58:09;2.93;;;2.30;;
11877;SDS011;5998;42.676;23.268;2023-02-03T12:00:49;1.60;;;1.50;;
11877;SDS011;5998;42.676;23.268;2023-02-03T12:03:29;1.73;;;1.63;;
11877;SDS011;5998;42.676;23.268;2023-02-03T12:06:25;1.83;;;1.70;;
11877;SDS011;5998;42.676;23.268;2023-02-03T12:09:16;1.57;;;1.47;;
11877;SDS011;5998;42.676;23.268;2023-02-03T12:11:55;3.80;;;1.80;;
11877;SDS011;5998;42.676;23.268;2023-02-03T12:14:38;1.70;;;1.60;;
11877;SDS011;5998;42.676;23.268;2023-02-03T12:17:23;3.07;;;1.73;;
11877;SDS011;5998;42.676;23.268;2023-02-03T12:20:20;1.63;;;1.53;;
11877;SDS011;5998;42.676;23.268;2023-02-03T12:22:56;3.10;;;1.80;;
11877;SDS011;5998;42.676;23.268;2023-02-03T12:25:35;2.37;;;1.50;;
11877;SDS011;5998;42.676;23.268;2023-02-03T12:28:18;1.60;;;1.50;;
11877;SDS011;5998;42.676;23.268;2023-02-03T12:30:56;1.00;;;1.00;;
11877;SDS011;5998;42.676;23.268;2023-02-03T12:33:29;1.53;;;1.10;;
11877;SDS011;5998;42.676;23.268;2023-02-03T12:36:03;2.43;;;1.77;;
11877;SDS011;5998;42.676;23.268;2023-02-03T12:38:35;3.80;;;1.60;;
11877;SDS011;5998;42.676;23.268;2023-02-03T12:41:06;3.27;;;1.57;;
11877;SDS011;5998;42.676;23.268;2023-02-03T12:43:37;1.17;;;1.07;;
11877;SDS011;5998;42.676;23.268;2023-02-03T12:46:09;2.30;;;1.53;;
11877;SDS011;5998;42.676;23.268;2023-02-03T12:48:43;1.90;;;1.10;;
11877;SDS011;5998;42.676;23.268;2023-02-03T12:51:17;1.50;;;1.30;;
11877;SDS011;5998;42.676;23.268;2023-02-03T12:53:57;1.50;;;1.40;;
11877;SDS011;5998;42.676;23.268;2023-02-03T12:56:33;2.70;;;1.70;;
11877;SDS011;5998;42.676;23.268;2023-02-03T12:59:05;2.93;;;1.80;;
11877;SDS011;5998;42.676;23.268;2023-02-03T13:01:41;2.20;;;1.70;;
11877;SDS011;5998;42.676;23.268;2023-02-03T13:04:14;3.33;;;1.60;;
11877;SDS011;5998;42.676;23.268;2023-02-03T13:06:51;1.83;;;1.73;;
11877;SDS011;5998;42.676;23.268;2023-02-03T13:09:29;2.07;;;1.83;;
11877;SDS011;5998;42.676;23.268;2023-02-03T13:12:02;2.57;;;1.80;;
11877;SDS011;5998;42.676;23.268;2023-02-03T13:14:37;1.47;;;1.37;;
11877;SDS011;5998;42.676;23.268;2023-02-03T13:17:10;2.17;;;1.90;;
11877;SDS011;5998;42.676;23.268;2023-02-03T13:19:42;3.10;;;1.63;;
11877;SDS011;5998;42.676;23.268;2023-02-03T13:22:12;4.33;;;2.57;;
11877;SDS011;5998;42.676;23.268;2023-02-03T13:24:42;1.73;;;1.63;;
11877;SDS011;5998;42.676;23.268;2023-02-03T13:27:19;5.03;;;2.40;;
11877;SDS011;5998;42.676;23.268;2023-02-03T13:29:58;2.53;;;2.17;;
11877;SDS011;5998;42.676;23.268;2023-02-03T13:32:40;3.63;;;2.30;;
11877;SDS011;5998;42.676;23.268;2023-02-03T13:35:27;2.43;;;1.97;;
11877;SDS011;5998;42.676;23.268;2023-02-03T13:38:13;2.20;;;2.00;;
11877;SDS011;5998;42.676;23.268;2023-02-03T13:40:58;2.33;;;1.93;;
11877;SDS011;5998;42.676;23.268;2023-02-03T13:43:31;1.80;;;1.70;;
11877;SDS011;5998;42.676;23.268;2023-02-03T13:46:01;2.10;;;2.00;;
11877;SDS011;5998;42.676;23.268;2023-02-03T13:48:29;2.13;;;1.90;;
11877;SDS011;5998;42.676;23.268;2023-02-03T13:51:03;3.73;;;2.57;;
11877;SDS011;5998;42.676;23.268;2023-02-03T13:53:33;3.03;;;2.30;;
11877;SDS011;5998;42.676;23.268;2023-02-03T13:56:05;2.57;;;2.33;;
11877;SDS011;5998;42.676;23.268;2023-02-03T13:58:34;3.77;;;2.20;;
11877;SDS011;5998;42.676;23.268;2023-02-03T14:03:53;7.67;;;2.87;;
11877;SDS011;5998;42.676;23.268;2023-02-03T14:09:20;2.67;;;2.47;;
11877;SDS011;5998;42.676;23.268;2023-02-03T14:11:50;4.97;;;3.03;;
11877;SDS011;5998;42.676;23.268;2023-02-03T14:17:07;5.00;;;2.60;;
11877;SDS011;5998;42.676;23.268;2023-02-03T14:19:56;8.40;;;2.67;;
11877;SDS011;5998;42.676;23.268;2023-02-03T14:22:22;2.40;;;1.83;;
11877;SDS011;5998;42.676;23.268;2023-02-03T14:24:51;3.13;;;2.77;;
11877;SDS011;5998;42.676;23.268;2023-02-03T14:27:23;4.17;;;2.70;;
11877;SDS011;5998;42.676;23.268;2023-02-03T14:30:02;4.63;;;3.03;;
11877;SDS011;5998;42.676;23.268;2023-02-03T14:35:14;4.30;;;2.70;;
11877;SDS011;5998;42.676;23.268;2023-02-03T14:37:49;4.60;;;2.67;;
11877;SDS011;5998;42.676;23.268;2023-02-03T14:40:20;2.60;;;1.97;;
11877;SDS011;5998;42.676;23.268;2023-02-03T14:51:46;5.13;;;2.80;;
11877;SDS011;5998;42.676;23.268;2023-02-03T14:54:33;9.77;;;3.17;;
11877;SDS011;5998;42.676;23.268;2023-02-03T14:57:17;5.13;;;2.80;;
11877;SDS011;5998;42.676;23.268;2023-02-03T14:59:59;3.33;;;2.80;;
11877;SDS011;5998;42.676;23.268;2023-02-03T15:02:30;5.00;;;3.20;;
11877;SDS011;5998;42.676;23.268;2023-02-03T15:08:02;4.30;;;2.27;;
11877;SDS011;5998;42.676;23.268;2023-02-03T15:10:29;2.67;;;2.47;;
11877;SDS011;5998;42.676;23.268;2023-02-03T15:13:21;5.80;;;2.87;;
11877;SDS011;5998;42.676;23.268;2023-02-03T15:15:51;5.80;;;2.70;;
11877;SDS011;5998;42.676;23.268;2023-02-03T15:18:19;3.20;;;2.90;;
11877;SDS011;5998;42.676;23.268;2023-02-03T15:20:51;3.23;;;2.60;;
11877;SDS011;5998;42.676;23.268;2023-02-03T15:23:21;2.90;;;2.50;;
11877;SDS011;5998;42.676;23.268;2023-02-03T15:25:52;5.53;;;2.80;;
11877;SDS011;5998;42.676;23.268;2023-02-03T15:28:20;3.83;;;2.10;;
11877;SDS011;5998;42.676;23.268;2023-02-03T15:30:48;2.27;;;2.07;;
11877;SDS011;5998;42.676;23.268;2023-02-03T15:33:23;2.97;;;2.33;;
11877;SDS011;5998;42.676;23.268;2023-02-03T15:35:51;2.67;;;2.33;;
11877;SDS011;5998;42.676;23.268;2023-02-03T15:38:22;2.60;;;2.23;;